Terminal Aerodrome Forecast
Issued by NWS

Home | Current Version | Previous Version | Text Only | Print | Product List | Glossary On
Versions: 1 2 3 4 5 6 7 8 9 10 11 12 13 14 15
000
FTUS43 KGRB 260215 AAA
TAFRHI
TAF AMD
KRHI 260215Z 2602/2624 VRB03KT P6SM SCT200
     FM261400 25008KT P6SM BKN200
     FM261900 30011KT P6SM BKN050 OVC150 PROB30 2619/2624 6SM -SHRA=

USA.gov is the U.S. government's official web portal to all federal, state and local government web resources and services.